createdAt,value
2023-01-28T00:04:07.134Z,101060.25
2023-01-28T00:09:08.829Z,101062.06
2023-01-28T00:14:12.214Z,101061.72
2023-01-28T00:19:13.806Z,101060.22
2023-01-28T00:24:15.760Z,101064.59
2023-01-28T00:29:17.491Z,101061.75
2023-01-28T00:34:19.716Z,101056.28
2023-01-28T00:39:21.319Z,101058.75
2023-01-28T00:44:22.954Z,101064.72
2023-01-28T00:49:24.559Z,101063.72
2023-01-28T00:54:26.244Z,101063.13
2023-01-28T00:59:27.949Z,101067.75
2023-01-28T01:04:35.340Z,101073.63
2023-01-28T01:09:38.064Z,101069.31
2023-01-28T01:14:39.609Z,101055.50
2023-01-28T01:19:42.636Z,101064.66
2023-01-28T01:24:44.240Z,101080.38
2023-01-28T01:29:45.813Z,101074.16
2023-01-28T01:34:47.465Z,101079.44
2023-01-28T01:39:49.205Z,101085.97
2023-01-28T01:45:00.045Z,101083.16
2023-01-28T01:50:07.957Z,101088.59
2023-01-28T01:55:13.297Z,101082.22
2023-01-28T02:00:16.170Z,101079.56
2023-01-28T02:05:20.165Z,101075.00
2023-01-28T02:10:22.918Z,101072.41
2023-01-28T02:15:25.236Z,101063.50
2023-01-28T02:21:00.757Z,101066.78
2023-01-28T02:26:09.911Z,101073.53
2023-01-28T02:31:18.583Z,101076.00
2023-01-28T02:36:45.421Z,101077.25
2023-01-28T02:41:53.416Z,101078.19
2023-01-28T02:47:13.800Z,101076.31
2023-01-28T02:52:20.392Z,101087.81
2023-01-28T02:57:40.859Z,101092.03
2023-01-28T03:02:44.635Z,101095.72
2023-01-28T03:07:47.017Z,101097.28
2023-01-28T03:13:10.369Z,101086.56
2023-01-28T03:18:38.765Z,101103.19
2023-01-28T03:24:20.086Z,101108.31
2023-01-28T03:29:42.228Z,101102.88
2023-01-28T03:35:05.813Z,101106.47
2023-01-28T03:40:08.172Z,101120.28
2023-01-28T03:45:10.256Z,101111.94
2023-01-28T03:50:12.083Z,101119.63
2023-01-28T03:55:47.866Z,101116.00
2023-01-28T04:00:49.452Z,101118.81
2023-01-28T04:06:06.181Z,101129.78
2023-01-28T04:11:27.348Z,101136.25
2023-01-28T04:16:30.774Z,101123.50
2023-01-28T04:21:32.899Z,101136.00
2023-01-28T04:26:36.669Z,101138.97
2023-01-28T04:31:39.546Z,101141.09
2023-01-28T04:37:04.168Z,101143.22
2023-01-28T04:42:24.166Z,101146.91
2023-01-28T04:47:40.028Z,101148.78
2023-01-28T04:53:00.155Z,101152.63
2023-01-28T04:58:14.135Z,101175.25
2023-01-28T05:03:17.835Z,101173.13
2023-01-28T05:08:19.459Z,101191.94
2023-01-28T05:13:21.925Z,101190.91
2023-01-28T05:18:23.780Z,101193.19
2023-01-28T05:23:44.351Z,101195.16
2023-01-28T05:28:45.964Z,101201.69
2023-01-28T05:33:47.679Z,101199.25
2023-01-28T05:38:50.258Z,101211.34
2023-01-28T05:43:52.054Z,101219.19
2023-01-28T05:49:13.432Z,101223.50
2023-01-28T05:54:45.905Z,101219.66
2023-01-28T05:59:47.486Z,101226.78
2023-01-28T06:04:49.075Z,101231.78
2023-01-28T06:09:52.326Z,101230.47
2023-01-28T06:14:56.516Z,101243.50
2023-01-28T06:20:17.478Z,101251.22
2023-01-28T06:25:22.497Z,101270.72
2023-01-28T06:30:24.282Z,101271.00
2023-01-28T06:35:25.854Z,101286.66
2023-01-28T06:40:27.449Z,101298.03
2023-01-28T06:45:29.275Z,101299.03
2023-01-28T06:50:30.895Z,101305.38
2023-01-28T06:55:32.476Z,101307.47
2023-01-28T07:00:34.383Z,101306.63
2023-01-28T07:05:36.021Z,101309.84
2023-01-28T07:10:37.874Z,101316.91
2023-01-28T07:15:39.499Z,101320.97
2023-01-28T07:20:41.085Z,101316.91
2023-01-28T07:25:42.618Z,101322.94
2023-01-28T07:30:44.308Z,101343.19
2023-01-28T07:35:46.570Z,101334.97
2023-01-28T07:40:48.370Z,101336.69
2023-01-28T07:45:50.188Z,101331.50
2023-01-28T07:50:51.911Z,101331.22
2023-01-28T07:55:59.510Z,101334.06
2023-01-28T08:01:02.137Z,101340.78
2023-01-28T08:06:04.024Z,101335.66
2023-01-28T08:11:10.670Z,101340.69
2023-01-28T08:16:12.731Z,101343.06
2023-01-28T08:21:14.409Z,101342.28
2023-01-28T08:26:15.949Z,101347.84
2023-01-28T08:31:17.551Z,101339.41
2023-01-28T08:36:19.155Z,101346.31
2023-01-28T08:41:24.095Z,101348.72
2023-01-28T08:46:25.861Z,101351.03
2023-01-28T08:51:27.458Z,101353.19
2023-01-28T08:56:30.446Z,101359.97
2023-01-28T09:01:32.156Z,101366.84
2023-01-28T09:06:33.816Z,101364.72
2023-01-28T09:11:35.433Z,101375.84
2023-01-28T09:16:36.990Z,101371.19
2023-01-28T09:21:41.367Z,101371.63
2023-01-28T09:26:44.486Z,101377.91
2023-01-28T09:31:46.197Z,101386.16
2023-01-28T09:36:47.824Z,101380.16
2023-01-28T09:42:09.866Z,101377.56
2023-01-28T09:47:51.915Z,101389.94
2023-01-28T09:52:57.986Z,101382.97
2023-01-28T09:57:59.704Z,101394.59
2023-01-28T10:03:36.698Z,101395.28
2023-01-28T10:09:05.908Z,101393.88
2023-01-28T10:14:19.616Z,101401.00
2023-01-28T10:19:30.733Z,101404.31
2023-01-28T10:24:38.296Z,101407.19
2023-01-28T10:29:43.915Z,101408.00
2023-01-28T10:34:45.557Z,101406.44
2023-01-28T10:39:47.320Z,101415.94
2023-01-28T10:44:49.759Z,101417.91
2023-01-28T10:49:53.491Z,101419.50
2023-01-28T10:55:02.894Z,101423.44
2023-01-28T11:00:26.235Z,101427.59
2023-01-28T11:05:30.408Z,101422.56
2023-01-28T11:10:37.558Z,101417.06
2023-01-28T11:15:46.559Z,101422.31
2023-01-28T11:21:03.445Z,101413.34
2023-01-28T11:26:07.613Z,101419.75
2023-01-28T11:31:11.368Z,101412.88
2023-01-28T11:36:21.628Z,101406.28
2023-01-28T11:41:34.700Z,101400.88
2023-01-28T11:47:25.703Z,101402.03
2023-01-28T11:53:05.059Z,101388.47
2023-01-28T11:58:18.697Z,101388.00
2023-01-28T12:03:34.718Z,101392.75
2023-01-28T12:09:14.804Z,101393.53
2023-01-28T12:14:55.587Z,101376.09
2023-01-28T12:20:06.396Z,101381.97
2023-01-28T12:25:25.979Z,101387.69
2023-01-28T12:31:07.921Z,101382.16
2023-01-28T12:36:22.206Z,101377.38
2023-01-28T12:41:33.157Z,101378.72
2023-01-28T12:46:45.590Z,101367.75
2023-01-28T12:51:54.206Z,101369.22
2023-01-28T12:56:56.514Z,101372.25
2023-01-28T13:02:04.160Z,101383.59
2023-01-28T13:07:20.992Z,101367.75
2023-01-28T13:12:23.102Z,101371.00
2023-01-28T13:17:27.724Z,101368.97
2023-01-28T13:22:35.259Z,101375.47
2023-01-28T13:27:36.997Z,101372.69
2023-01-28T13:32:39.807Z,101381.00
2023-01-28T13:37:45.271Z,101384.75
2023-01-28T13:42:58.348Z,101383.03
2023-01-28T13:48:18.424Z,101379.16
2023-01-28T13:53:42.957Z,101385.97
2023-01-28T13:59:03.332Z,101392.41
2023-01-28T14:04:23.384Z,101394.13
2023-01-28T14:09:54.204Z,101395.09
2023-01-28T14:15:12.394Z,101404.16
2023-01-28T14:20:25.328Z,101408.53
2023-01-28T14:25:52.209Z,101406.06
2023-01-28T14:30:58.015Z,101414.94
2023-01-28T14:35:59.708Z,101412.75
2023-01-28T14:41:02.131Z,101410.94
2023-01-28T14:46:17.555Z,101399.28
2023-01-28T14:51:54.911Z,101397.91
2023-01-28T14:57:28.751Z,101414.22
2023-01-28T15:02:31.316Z,101397.44
2023-01-28T15:07:32.913Z,101406.63
2023-01-28T15:12:37.745Z,101401.53
2023-01-28T15:17:39.405Z,101408.97
2023-01-28T15:22:42.280Z,101415.19
2023-01-28T15:27:43.827Z,101403.88
2023-01-28T15:32:45.438Z,101391.03
2023-01-28T15:42:54.966Z,101391.94
2023-01-28T15:48:05.130Z,101373.63
2023-01-28T15:53:14.286Z,101373.25
2023-01-28T15:58:29.765Z,101373.34
2023-01-28T16:03:31.416Z,101376.09
2023-01-28T16:08:42.552Z,101373.19
2023-01-28T16:13:44.495Z,101365.91
2023-01-28T16:18:49.089Z,101367.88
2023-01-28T16:24:01.415Z,101374.25
2023-01-28T16:29:14.221Z,101380.06
2023-01-28T16:34:15.860Z,101386.53
2023-01-28T16:39:17.486Z,101392.09
2023-01-28T16:44:19.043Z,101394.72
2023-01-28T16:49:20.627Z,101394.72
2023-01-28T16:54:22.516Z,101389.22
2023-01-28T16:59:24.095Z,101379.44
2023-01-28T17:04:25.823Z,101388.59
2023-01-28T17:09:27.513Z,101392.41
2023-01-28T17:14:29.077Z,101392.91
2023-01-28T17:19:31.084Z,101412.75
2023-01-28T17:24:32.708Z,101410.56
2023-01-28T17:29:34.310Z,101417.84
2023-01-28T17:34:35.913Z,101439.59
2023-01-28T17:39:37.557Z,101445.44
2023-01-28T17:44:39.168Z,101451.38
2023-01-28T17:49:40.731Z,101463.53
2023-01-28T17:54:42.353Z,101455.72
2023-01-28T17:59:43.980Z,101458.94
2023-01-28T18:04:46.614Z,101455.38
2023-01-28T18:09:48.749Z,101462.19
2023-01-28T18:14:50.486Z,101450.78
2023-01-28T18:19:52.017Z,101444.59
2023-01-28T18:24:53.634Z,101444.28
2023-01-28T18:29:55.259Z,101462.03
2023-01-28T18:34:56.875Z,101452.53
2023-01-28T18:39:58.489Z,101463.69
2023-01-28T18:45:00.145Z,101464.88
2023-01-28T18:50:02.115Z,101480.09
2023-01-28T18:55:04.151Z,101487.13
2023-01-28T19:00:06.473Z,101489.69
2023-01-28T19:05:08.348Z,101511.66
2023-01-28T19:10:10.263Z,101524.97
2023-01-28T19:15:12.095Z,101535.41
2023-01-28T19:20:14.077Z,101532.97
2023-01-28T19:25:16.479Z,101535.94
2023-01-28T19:30:18.387Z,101530.75
2023-01-28T19:35:21.076Z,101524.53
2023-01-28T19:40:23.921Z,101512.28
2023-01-28T19:45:25.561Z,101505.00
2023-01-28T19:50:27.148Z,101493.50
2023-01-28T19:55:28.738Z,101499.03
2023-01-28T20:00:30.352Z,101505.72
2023-01-28T20:05:32.203Z,101509.66
2023-01-28T20:10:33.821Z,101493.63
2023-01-28T20:15:39.730Z,101487.81
2023-01-28T20:20:41.312Z,101488.16
2023-01-28T20:25:42.842Z,101474.50
2023-01-28T20:30:44.567Z,101463.19
2023-01-28T20:35:46.540Z,101460.31
2023-01-28T20:40:48.150Z,101452.13
2023-01-28T20:45:50.273Z,101445.53
2023-01-28T20:50:51.821Z,101464.25
2023-01-28T20:55:58.400Z,101465.84
2023-01-28T21:00:59.998Z,101471.56
2023-01-28T21:06:01.688Z,101471.25
2023-01-28T21:11:04.149Z,101484.50
2023-01-28T21:16:06.333Z,101494.44
2023-01-28T21:21:11.605Z,101499.22
2023-01-28T21:26:15.309Z,101495.66
2023-01-28T21:31:17.865Z,101511.03
2023-01-28T21:36:20.085Z,101510.88
2023-01-28T21:41:22.159Z,101499.22
2023-01-28T21:46:28.244Z,101509.19
2023-01-28T21:51:36.197Z,101511.69
2023-01-28T21:56:38.070Z,101501.56
2023-01-28T22:01:39.728Z,101499.78
2023-01-28T22:06:42.353Z,101490.16
2023-01-28T22:11:44.684Z,101498.44
2023-01-28T22:16:46.988Z,101491.72
2023-01-28T22:21:48.666Z,101485.09
2023-01-28T22:26:50.901Z,101472.59
2023-01-28T22:31:53.477Z,101475.56
2023-01-28T22:36:55.142Z,101477.38
2023-01-28T22:41:56.787Z,101465.88
2023-01-28T22:46:58.338Z,101473.59
2023-01-28T22:51:59.997Z,101470.56
2023-01-28T22:57:01.593Z,101457.63
2023-01-28T23:02:03.245Z,101464.34
2023-01-28T23:07:05.385Z,101462.84
2023-01-28T23:12:07.285Z,101468.31
2023-01-28T23:17:29.945Z,101467.81
2023-01-28T23:22:51.195Z,101479.94
2023-01-28T23:27:52.803Z,101462.78
2023-01-28T23:32:56.447Z,101452.84
2023-01-28T23:37:58.430Z,101452.41
2023-01-28T23:43:00.155Z,101471.34
2023-01-28T23:48:04.218Z,101468.47
2023-01-28T23:53:12.992Z,101473.88
2023-01-28T23:58:14.586Z,101460.75
